Aérodrome :
LOGIN :

S'inscrire | Disclaimer

   EN    FR    IT 

 










Légende :    VFR   VFR Marginal   IFR   IFR Intensif   IFR Très Intensif
Visi : 
Plafond : 
>= 8 km
>= 3000ft
5 à 8 km
1000 à 3000 ft
1500m à 5 km
500 à 1000 ft
800 à 1500m
200 à 500 ft
< 800m
< 200 ft
Symboles :   Orages  Brouillard  Fortes neiges  Fortes précipitations  Vent > 20 kt
SIGMETs :   Divers  Orages  Givrage  Turbulence  Onde Orograph.  Cendres Volcan.







- Altitude de l'aérodrome : 100 ft


EBDT - Schaffen

DERNIER METAR :
  • 261725Z AUTO 11004KT 9999 BKN048/// 08/02 Q1014 BLU

METARs EXPIRÉS :
  • 261655Z AUTO 24003KT 9999 SCT050/// BKN065/// 08/03 Q1014 BLU
  • 261625Z AUTO 29004KT 9999 SCT044/// BKN055/// 07/03 Q1014 BLU
  • 261555Z AUTO VRB01KT 9999 FEW025/// SCT090/// 07/03 Q1014 BLU
  • 261525Z AUTO 21005KT 9999 -RA FEW048/// BKN080/// BKN095/// 06/03 Q1014 BLU
  • 261455Z AUTO 18005KT 9999 FEW042/// SCT095/// BKN130/// 07/04 Q1014 BLU

TAF TAF EBDT
Valide du 26 à 13h jusqu'au 26 à 22h UTC


261141Z 2613/2622 33009KT 9999 FEW035 SCT050
TEMPO 2613/2622 7000 -SHRA FEW014 SCT024
TEMPO 2613/2622 5000 SHRA SCT014 SCT020TCU
PROB30
TEMPO 2613/2622 3000 -TSRA SCT013 SCT018CB
Pas de NOTAMs connus pour ce terrain.



MET'MAP, la Météo Aéronautique d'un coup d'oeil ! - Copyright ORBIFLY Décembre 2007 - Disclaimer

ORBIFLY MET'MAP TEAM :

Programmation & Développement : Alexandra Zaïnal
Conception & Développement : Baudouin d'Aumeries
Co-Programmation & Développement : Marc-Olivier Méhu
Soutien technique & logistique : Manuel Goepfert

Contact : metmap@orbifly.com




SOURCES & CREDITS :

   NOAA